createdAt,value
2023-01-25T00:00:53.164Z,99.90
2023-01-25T00:03:22.565Z,99.90
2023-01-25T00:05:59.021Z,99.90
2023-01-25T00:08:26.981Z,99.90
2023-01-25T00:10:57.506Z,99.90
2023-01-25T00:13:26.317Z,99.90
2023-01-25T00:15:54.601Z,99.90
2023-01-25T00:18:24.032Z,99.90
2023-01-25T00:20:51.967Z,99.90
2023-01-25T00:23:19.972Z,99.90
2023-01-25T00:25:47.988Z,99.90
2023-01-25T00:28:15.975Z,99.90
2023-01-25T00:30:43.922Z,99.90
2023-01-25T00:33:35.851Z,99.90
2023-01-25T00:36:04.367Z,99.90
2023-01-25T00:38:36.043Z,99.90
2023-01-25T00:41:04.154Z,99.90
2023-01-25T00:43:33.734Z,99.90
2023-01-25T00:46:02.532Z,99.90
2023-01-25T00:48:31.988Z,99.90
2023-01-25T00:51:02.030Z,99.90
2023-01-25T00:53:30.249Z,99.90
2023-01-25T00:55:58.296Z,99.90
2023-01-25T00:58:26.313Z,99.90
2023-01-25T01:00:55.161Z,99.90
2023-01-25T01:03:23.768Z,99.90
2023-01-25T01:06:06.041Z,99.90
2023-01-25T01:08:36.690Z,99.90
2023-01-25T01:11:06.708Z,99.90
2023-01-25T01:13:35.310Z,99.90
2023-01-25T01:16:05.436Z,99.90
2023-01-25T01:18:36.060Z,99.90
2023-01-25T01:21:08.132Z,99.90
2023-01-25T01:23:36.823Z,99.90
2023-01-25T01:26:07.153Z,99.90
2023-01-25T01:28:39.434Z,99.90
2023-01-25T01:31:10.285Z,99.90
2023-01-25T01:33:38.626Z,99.90
2023-01-25T01:36:14.006Z,99.90
2023-01-25T01:38:42.485Z,99.90
2023-01-25T01:41:11.542Z,99.90
2023-01-25T01:43:40.005Z,99.90
2023-01-25T01:46:14.258Z,99.90
2023-01-25T01:48:46.341Z,99.90
2023-01-25T01:51:20.746Z,99.90
2023-01-25T01:53:53.884Z,99.90
2023-01-25T01:56:28.930Z,99.90
2023-01-25T01:58:59.983Z,99.90
2023-01-25T02:01:28.491Z,99.90
2023-01-25T02:03:57.136Z,99.90
2023-01-25T02:06:36.269Z,99.90
2023-01-25T02:09:04.577Z,99.90
2023-01-25T02:11:34.274Z,99.90
2023-01-25T02:14:03.974Z,99.90
2023-01-25T02:16:32.303Z,99.90
2023-01-25T02:19:02.725Z,99.90
2023-01-25T02:21:40.206Z,99.90
2023-01-25T02:24:13.638Z,99.90
2023-01-25T02:26:43.301Z,99.90
2023-01-25T02:29:12.715Z,99.90
2023-01-25T02:31:40.818Z,99.90
2023-01-25T02:34:09.287Z,99.90
2023-01-25T02:36:38.020Z,99.90
2023-01-25T02:39:10.532Z,99.90
2023-01-25T02:41:40.168Z,99.90
2023-01-25T02:44:13.016Z,99.90
2023-01-25T02:46:42.788Z,99.90
2023-01-25T02:49:11.530Z,99.90
2023-01-25T02:51:41.332Z,99.90
2023-01-25T02:54:11.922Z,99.90
2023-01-25T02:56:41.345Z,99.90
2023-01-25T02:59:13.226Z,99.90
2023-01-25T03:01:44.217Z,99.90
2023-01-25T03:04:12.613Z,99.90
2023-01-25T03:06:41.751Z,99.90
2023-01-25T03:09:11.447Z,99.90
2023-01-25T03:11:39.492Z,99.90
2023-01-25T03:14:07.499Z,99.90
2023-01-25T03:16:36.948Z,99.90
2023-01-25T03:19:05.305Z,99.90
2023-01-25T03:21:33.528Z,99.90
2023-01-25T03:24:02.881Z,99.90
2023-01-25T03:26:31.121Z,99.90
2023-01-25T03:28:59.173Z,99.90
2023-01-25T03:31:27.199Z,99.90
2023-01-25T03:33:56.872Z,99.90
2023-01-25T03:36:25.169Z,99.90
2023-01-25T03:38:53.420Z,99.90
2023-01-25T03:41:21.647Z,99.90
2023-01-25T03:43:49.739Z,99.90
2023-01-25T03:46:17.710Z,99.90
2023-01-25T03:48:45.667Z,99.90
2023-01-25T03:51:15.016Z,99.90
2023-01-25T03:53:42.996Z,99.90
2023-01-25T03:56:17.571Z,99.90
2023-01-25T03:58:45.655Z,99.90
2023-01-25T04:01:14.036Z,99.90
2023-01-25T04:03:42.115Z,99.90
2023-01-25T04:06:10.397Z,99.90
2023-01-25T04:08:39.978Z,99.90
2023-01-25T04:11:10.839Z,99.90
2023-01-25T04:13:39.984Z,99.90
2023-01-25T04:16:09.728Z,99.90
2023-01-25T04:18:38.061Z,99.90
2023-01-25T04:21:06.711Z,99.90
2023-01-25T04:23:34.855Z,99.90
2023-01-25T04:26:06.471Z,99.90
2023-01-25T04:28:36.276Z,99.90
2023-01-25T04:31:06.134Z,99.90
2023-01-25T04:33:34.751Z,99.90
2023-01-25T04:36:03.272Z,99.90
2023-01-25T04:38:31.547Z,99.90
2023-01-25T04:40:59.777Z,99.90
2023-01-25T04:43:29.496Z,99.90
2023-01-25T04:45:57.903Z,99.90
2023-01-25T04:48:26.429Z,92.00
2023-01-25T04:50:54.462Z,80.70
2023-01-25T04:53:22.713Z,68.80
2023-01-25T04:55:51.302Z,66.30
2023-01-25T04:58:20.138Z,96.90
2023-01-25T05:00:49.658Z,74.50
2023-01-25T05:03:17.911Z,69.00
2023-01-25T05:05:48.585Z,52.40
2023-01-25T05:08:16.631Z,63.20
2023-01-25T05:10:45.827Z,53.10
2023-01-25T05:13:14.257Z,41.30
2023-01-25T05:15:42.332Z,52.50
2023-01-25T05:18:11.897Z,44.40
2023-01-25T05:20:40.155Z,46.60
2023-01-25T05:23:08.563Z,42.70
2023-01-25T05:25:53.949Z,55.30
2023-01-25T05:28:21.885Z,72.10
2023-01-25T05:30:50.243Z,68.40
2023-01-25T05:33:19.922Z,50.90
2023-01-25T05:35:47.985Z,62.30
2023-01-25T05:38:16.045Z,56.70
2023-01-25T05:40:44.277Z,91.80
2023-01-25T05:43:12.274Z,77.20
2023-01-25T05:45:41.279Z,55.90
2023-01-25T05:48:09.605Z,73.40
2023-01-25T05:50:39.210Z,63.80
2023-01-25T05:53:07.212Z,58.50
2023-01-25T05:55:36.780Z,53.00
2023-01-25T05:58:04.929Z,51.40
2023-01-25T06:00:33.208Z,48.80
2023-01-25T06:03:02.832Z,44.80
2023-01-25T06:05:31.371Z,64.70
2023-01-25T06:08:01.175Z,76.50
2023-01-25T06:10:29.445Z,92.50
2023-01-25T06:13:01.077Z,87.30
2023-01-25T06:15:29.204Z,80.20
2023-01-25T06:17:57.835Z,96.20
2023-01-25T06:20:25.966Z,80.30
2023-01-25T06:22:54.178Z,74.30
2023-01-25T06:25:23.586Z,71.80
2023-01-25T06:27:51.606Z,84.20
2023-01-25T06:30:19.845Z,86.90
2023-01-25T06:32:47.835Z,79.60
2023-01-25T06:35:15.972Z,62.40
2023-01-25T06:37:43.971Z,55.40
2023-01-25T06:40:13.531Z,44.60
2023-01-25T06:42:42.942Z,46.50
2023-01-25T06:45:12.176Z,60.20
2023-01-25T06:47:40.541Z,65.90
2023-01-25T06:50:09.720Z,58.50
2023-01-25T06:52:37.985Z,65.00
2023-01-25T06:55:07.837Z,60.00
2023-01-25T06:57:36.222Z,56.20
2023-01-25T07:00:06.810Z,58.20
2023-01-25T07:02:34.829Z,76.80
2023-01-25T07:05:02.864Z,73.80
2023-01-25T07:07:30.979Z,56.50
2023-01-25T07:10:00.489Z,76.20
2023-01-25T07:12:30.167Z,80.00
2023-01-25T07:14:58.217Z,77.70
2023-01-25T07:17:27.624Z,62.30
2023-01-25T07:19:55.632Z,54.30
2023-01-25T07:22:23.904Z,43.90
2023-01-25T07:24:53.915Z,22.50
2023-01-25T07:27:21.886Z,11.30
2023-01-25T07:29:49.908Z,6.00
2023-01-25T07:32:17.885Z,12.10
2023-01-25T07:34:47.269Z,8.40
2023-01-25T07:37:15.204Z,5.60
2023-01-25T07:39:48.168Z,12.80
2023-01-25T07:42:16.374Z,26.40
2023-01-25T07:44:44.392Z,36.70
2023-01-25T07:47:12.386Z,34.00
2023-01-25T07:49:40.372Z,28.50
2023-01-25T07:52:10.052Z,21.10
2023-01-25T07:54:38.120Z,10.40
2023-01-25T07:57:06.386Z,7.50
2023-01-25T07:59:34.683Z,12.00
2023-01-25T08:02:03.019Z,6.50
2023-01-25T08:04:31.419Z,1.00
2023-01-25T08:06:59.681Z,1.00
2023-01-25T08:09:29.131Z,1.00
2023-01-25T08:11:57.367Z,1.00
2023-01-25T08:14:25.845Z,1.00
2023-01-25T08:16:53.812Z,1.00
2023-01-25T08:19:22.031Z,1.00
2023-01-25T08:21:50.363Z,1.00
2023-01-25T08:24:20.670Z,1.00
2023-01-25T08:26:50.125Z,1.00
2023-01-25T08:29:18.211Z,1.00
2023-01-25T08:31:46.356Z,1.00
2023-01-25T08:34:16.133Z,1.00
2023-01-25T08:36:44.125Z,1.00
2023-01-25T08:39:14.129Z,1.00
2023-01-25T08:41:42.736Z,1.00
2023-01-25T08:44:12.702Z,1.00
2023-01-25T08:46:40.942Z,1.00
2023-01-25T08:49:10.812Z,1.00
2023-01-25T08:51:38.871Z,1.00
2023-01-25T08:54:08.320Z,1.00
2023-01-25T08:56:38.008Z,1.00
2023-01-25T08:59:06.168Z,1.00
2023-01-25T09:01:36.098Z,1.00
2023-01-25T09:04:04.507Z,1.00
2023-01-25T09:06:32.624Z,1.00
2023-01-25T09:09:00.655Z,1.00
2023-01-25T09:11:28.806Z,1.00
2023-01-25T09:13:56.840Z,1.00
2023-01-25T09:16:29.448Z,1.00
2023-01-25T09:19:00.510Z,1.00
2023-01-25T09:21:28.636Z,1.00
2023-01-25T09:24:05.998Z,1.00
2023-01-25T09:26:35.844Z,1.00
2023-01-25T09:29:04.723Z,1.00
2023-01-25T09:31:32.882Z,1.00
2023-01-25T09:34:02.708Z,1.00
2023-01-25T09:36:30.725Z,1.00
2023-01-25T09:38:58.681Z,1.00
2023-01-25T09:42:00.688Z,1.00
2023-01-25T09:44:47.124Z,1.00
2023-01-25T09:47:22.177Z,1.00
2023-01-25T09:50:06.031Z,1.00
2023-01-25T09:53:05.999Z,1.00
2023-01-25T09:55:35.784Z,1.00
2023-01-25T09:58:05.323Z,1.00
2023-01-25T10:00:36.245Z,1.00
2023-01-25T10:03:12.404Z,1.00
2023-01-25T10:05:46.704Z,1.00
2023-01-25T10:08:21.246Z,1.00
2023-01-25T10:10:54.864Z,1.00
2023-01-25T10:13:25.308Z,1.00
2023-01-25T10:16:00.256Z,1.00
2023-01-25T10:18:33.068Z,1.00
2023-01-25T10:21:05.121Z,1.00
2023-01-25T10:23:59.875Z,1.00
2023-01-25T10:26:30.557Z,1.00
2023-01-25T10:29:05.788Z,1.00
2023-01-25T10:31:39.825Z,1.00
2023-01-25T10:34:19.217Z,1.00
2023-01-25T10:36:51.663Z,1.00
2023-01-25T10:39:20.628Z,1.00
2023-01-25T10:41:52.442Z,1.00
2023-01-25T10:44:24.501Z,1.00
2023-01-25T10:47:00.764Z,1.00
2023-01-25T10:49:36.067Z,1.00
2023-01-25T10:52:24.975Z,1.00
2023-01-25T10:55:12.306Z,1.00
2023-01-25T10:57:44.734Z,1.00
2023-01-25T11:00:29.891Z,1.00
2023-01-25T11:02:58.656Z,1.00
2023-01-25T11:05:29.723Z,1.00
2023-01-25T11:08:00.364Z,1.00
2023-01-25T11:10:33.328Z,1.00
2023-01-25T11:13:21.011Z,1.00
2023-01-25T11:15:51.339Z,1.00
2023-01-25T11:18:22.665Z,1.00
2023-01-25T11:21:05.424Z,1.00
2023-01-25T11:23:35.773Z,1.00
2023-01-25T11:26:14.427Z,1.00
2023-01-25T11:28:44.481Z,1.00
2023-01-25T11:31:14.812Z,1.00
2023-01-25T11:33:44.015Z,1.00
2023-01-25T11:36:29.918Z,1.00
2023-01-25T11:39:13.549Z,1.00
2023-01-25T11:42:04.163Z,1.00
2023-01-25T11:44:55.051Z,1.00
2023-01-25T11:47:36.476Z,1.00
2023-01-25T11:50:12.733Z,1.00
2023-01-25T11:52:57.971Z,1.00
2023-01-25T11:55:30.341Z,1.00
2023-01-25T11:58:18.768Z,1.00
2023-01-25T12:00:59.949Z,1.00
2023-01-25T12:04:07.636Z,1.00
2023-01-25T12:06:46.575Z,1.00
2023-01-25T12:09:36.615Z,1.00
2023-01-25T12:12:13.841Z,1.00
2023-01-25T12:14:58.226Z,1.00
2023-01-25T12:17:39.616Z,1.00
2023-01-25T12:20:32.537Z,1.00
2023-01-25T12:23:30.275Z,1.00
2023-01-25T12:26:10.276Z,1.00
2023-01-25T12:28:44.272Z,1.00
2023-01-25T12:31:17.884Z,1.00
2023-01-25T12:33:52.919Z,1.00
2023-01-25T12:36:26.413Z,1.00
2023-01-25T12:38:59.145Z,1.00
2023-01-25T12:41:39.764Z,1.00
2023-01-25T12:44:18.707Z,1.00
2023-01-25T12:46:53.675Z,1.00
2023-01-25T12:49:28.796Z,1.00
2023-01-25T12:52:00.412Z,1.00
2023-01-25T12:54:33.700Z,1.00
2023-01-25T12:57:17.869Z,1.00
2023-01-25T12:59:55.880Z,1.00
2023-01-25T13:02:48.510Z,1.00
2023-01-25T13:05:28.126Z,1.00
2023-01-25T13:08:05.411Z,1.00
2023-01-25T13:10:37.583Z,1.00
2023-01-25T13:13:21.841Z,1.00
2023-01-25T13:15:51.295Z,1.00
2023-01-25T13:18:38.220Z,1.00
2023-01-25T13:21:11.495Z,1.00
2023-01-25T13:23:44.097Z,1.00
2023-01-25T13:26:48.458Z,1.00
2023-01-25T13:29:53.296Z,1.00
2023-01-25T13:33:01.148Z,1.00
2023-01-25T13:35:33.494Z,1.00
2023-01-25T13:38:05.822Z,1.00
2023-01-25T13:40:36.483Z,1.00
2023-01-25T13:43:07.413Z,1.00
2023-01-25T13:45:39.291Z,1.00
2023-01-25T13:48:16.660Z,1.00
2023-01-25T13:50:49.912Z,1.00
2023-01-25T13:53:22.681Z,1.00
2023-01-25T13:55:53.011Z,1.00
2023-01-25T13:58:23.218Z,1.00
2023-01-25T14:00:55.478Z,1.00
2023-01-25T14:03:26.103Z,1.00
2023-01-25T14:05:58.075Z,1.00
2023-01-25T14:08:27.469Z,1.00
2023-01-25T14:10:56.723Z,1.00
2023-01-25T14:13:24.866Z,1.00
2023-01-25T14:15:55.508Z,1.00
2023-01-25T14:18:28.491Z,1.00
2023-01-25T14:21:13.241Z,1.00
2023-01-25T14:23:41.800Z,1.00
2023-01-25T14:26:19.816Z,1.00
2023-01-25T14:28:59.120Z,1.00
2023-01-25T14:31:32.721Z,1.00
2023-01-25T14:34:02.661Z,1.00
2023-01-25T14:36:34.335Z,1.00
2023-01-25T14:39:04.869Z,1.00
2023-01-25T14:41:35.485Z,1.00
2023-01-25T14:44:05.134Z,1.00
2023-01-25T14:46:35.434Z,1.00
2023-01-25T14:49:25.514Z,1.00
2023-01-25T14:52:03.286Z,1.00
2023-01-25T14:54:33.438Z,1.00
2023-01-25T14:57:03.840Z,1.00
2023-01-25T14:59:36.782Z,1.00
2023-01-25T15:02:17.685Z,1.00
2023-01-25T15:05:00.727Z,1.00
2023-01-25T15:07:44.948Z,1.00
2023-01-25T15:10:21.709Z,1.00
2023-01-25T15:13:12.780Z,1.00
2023-01-25T15:15:53.234Z,1.00
2023-01-25T15:18:43.958Z,1.00
2023-01-25T15:21:14.045Z,1.00
2023-01-25T15:23:44.882Z,1.00
2023-01-25T15:26:20.394Z,1.00
2023-01-25T15:28:48.870Z,1.00
2023-01-25T15:31:19.126Z,1.00
2023-01-25T15:33:47.425Z,1.00
2023-01-25T15:36:16.133Z,1.00
2023-01-25T15:38:45.574Z,1.00
2023-01-25T15:41:13.801Z,1.00
2023-01-25T15:43:42.426Z,1.00
2023-01-25T15:46:17.986Z,1.00
2023-01-25T15:48:48.149Z,1.00
2023-01-25T15:51:17.126Z,1.00
2023-01-25T15:53:47.309Z,1.00
2023-01-25T15:56:19.235Z,1.00
2023-01-25T15:58:50.385Z,1.00
2023-01-25T16:01:19.092Z,1.00
2023-01-25T16:03:47.320Z,1.00
2023-01-25T16:06:29.805Z,1.00
2023-01-25T16:08:59.731Z,1.00
2023-01-25T16:11:28.496Z,1.00
2023-01-25T16:13:57.932Z,1.00
2023-01-25T16:16:27.150Z,1.00
2023-01-25T16:18:55.280Z,1.00
2023-01-25T16:21:23.290Z,1.00
2023-01-25T16:23:51.366Z,1.00
2023-01-25T16:26:23.149Z,1.00
2023-01-25T16:28:51.129Z,1.00
2023-01-25T16:31:31.836Z,1.00
2023-01-25T16:34:01.462Z,1.00
2023-01-25T16:36:31.379Z,1.00
2023-01-25T16:39:09.864Z,1.00
2023-01-25T16:41:39.331Z,1.00
2023-01-25T16:44:07.410Z,1.00
2023-01-25T16:46:35.727Z,1.00
2023-01-25T16:49:05.109Z,1.00
2023-01-25T16:51:33.762Z,1.00
2023-01-25T16:54:01.945Z,1.00
2023-01-25T16:56:31.982Z,1.00
2023-01-25T16:59:03.694Z,1.00
2023-01-25T17:01:32.368Z,1.00
2023-01-25T17:04:00.423Z,1.00
2023-01-25T17:06:30.453Z,1.00
2023-01-25T17:09:09.323Z,1.00
2023-01-25T17:11:41.151Z,1.00
2023-01-25T17:14:15.409Z,1.00
2023-01-25T17:16:45.058Z,1.00
2023-01-25T17:19:15.062Z,1.00
2023-01-25T17:21:43.123Z,1.00
2023-01-25T17:24:14.083Z,1.00
2023-01-25T17:26:42.411Z,1.00
2023-01-25T17:29:13.717Z,1.00
2023-01-25T17:31:42.319Z,1.00
2023-01-25T17:34:15.900Z,1.00
2023-01-25T17:36:44.615Z,1.00
2023-01-25T17:39:15.421Z,1.00
2023-01-25T17:41:44.018Z,1.00
2023-01-25T17:44:14.227Z,1.00
2023-01-25T17:46:42.306Z,1.00
2023-01-25T17:49:14.356Z,1.00
2023-01-25T17:51:42.343Z,1.00
2023-01-25T17:54:12.029Z,1.00
2023-01-25T17:56:40.829Z,1.00
2023-01-25T17:59:11.585Z,1.00
2023-01-25T18:01:43.164Z,1.00
2023-01-25T18:04:13.221Z,1.00
2023-01-25T18:06:41.755Z,1.00
2023-01-25T18:09:10.231Z,1.00
2023-01-25T18:11:40.053Z,1.00
2023-01-25T18:14:09.899Z,1.00
2023-01-25T18:16:40.814Z,1.00
2023-01-25T18:19:10.200Z,1.00
2023-01-25T18:21:39.637Z,1.00
2023-01-25T18:24:26.664Z,1.00
2023-01-25T18:27:01.695Z,1.00
2023-01-25T18:29:47.596Z,1.00
2023-01-25T18:32:17.319Z,1.00
2023-01-25T18:34:46.916Z,1.00
2023-01-25T18:37:21.939Z,1.00
2023-01-25T18:39:51.533Z,1.00
2023-01-25T18:42:20.631Z,1.00
2023-01-25T18:44:49.392Z,1.00
2023-01-25T18:47:20.613Z,1.00
2023-01-25T18:49:49.950Z,1.00
2023-01-25T18:52:18.472Z,1.00
2023-01-25T18:54:47.063Z,1.00
2023-01-25T18:57:15.818Z,1.00
2023-01-25T18:59:45.054Z,1.00
2023-01-25T19:02:14.790Z,1.00
2023-01-25T19:04:45.552Z,1.00
2023-01-25T19:07:14.557Z,1.00
2023-01-25T19:09:43.595Z,1.00
2023-01-25T19:12:12.122Z,1.00
2023-01-25T19:14:40.601Z,1.00
2023-01-25T19:17:08.896Z,1.00
2023-01-25T19:19:37.578Z,1.00
2023-01-25T19:22:07.278Z,1.00
2023-01-25T19:24:35.947Z,1.00
2023-01-25T19:27:04.339Z,1.00
2023-01-25T19:29:32.455Z,1.00
2023-01-25T19:32:00.687Z,1.00
2023-01-25T19:34:29.224Z,1.00
2023-01-25T19:36:58.379Z,1.00
2023-01-25T19:39:28.370Z,1.00
2023-01-25T19:41:56.619Z,2.80
2023-01-25T19:44:25.327Z,16.50
2023-01-25T19:46:54.132Z,24.00
2023-01-25T19:49:23.128Z,36.00
2023-01-25T19:51:53.752Z,57.30
2023-01-25T19:54:26.456Z,84.50
2023-01-25T19:57:00.013Z,61.10
2023-01-25T19:59:29.014Z,65.00
2023-01-25T20:01:57.121Z,54.70
2023-01-25T20:04:25.652Z,83.30
2023-01-25T20:06:54.502Z,94.60
2023-01-25T20:09:27.656Z,98.40
2023-01-25T20:11:58.367Z,99.90
2023-01-25T20:14:29.531Z,99.90
2023-01-25T20:16:58.363Z,99.90
2023-01-25T20:19:26.694Z,99.90
2023-01-25T20:21:54.781Z,99.90
2023-01-25T20:24:23.127Z,99.90
2023-01-25T20:26:52.383Z,99.90
2023-01-25T20:29:22.304Z,99.90
2023-01-25T20:31:50.658Z,99.90
2023-01-25T20:34:20.650Z,99.90
2023-01-25T20:36:49.881Z,99.90
2023-01-25T20:39:19.790Z,99.90
2023-01-25T20:41:48.545Z,99.90
2023-01-25T20:44:18.698Z,99.90
2023-01-25T20:46:49.934Z,99.90
2023-01-25T20:49:19.462Z,99.90
2023-01-25T20:51:48.260Z,99.90
2023-01-25T20:54:18.168Z,99.90
2023-01-25T20:56:48.181Z,99.90
2023-01-25T20:59:17.991Z,99.90
2023-01-25T21:01:48.141Z,99.90
2023-01-25T21:04:16.229Z,99.90
2023-01-25T21:06:44.556Z,99.90
2023-01-25T21:09:13.308Z,99.90
2023-01-25T21:11:41.933Z,99.90
2023-01-25T21:14:10.238Z,99.90
2023-01-25T21:16:38.716Z,99.90
2023-01-25T21:19:08.645Z,99.90
2023-01-25T21:21:38.527Z,99.90
2023-01-25T21:24:07.789Z,99.90
2023-01-25T21:26:38.298Z,99.90
2023-01-25T21:29:07.514Z,99.90
2023-01-25T21:31:37.300Z,99.90
2023-01-25T21:34:09.123Z,99.90
2023-01-25T21:36:37.307Z,99.90
2023-01-25T21:39:05.775Z,99.90
2023-01-25T21:41:34.733Z,99.90
2023-01-25T21:44:20.715Z,99.90
2023-01-25T21:47:16.273Z,99.90
2023-01-25T21:49:55.643Z,99.90
2023-01-25T21:52:23.683Z,99.90
2023-01-25T21:54:51.651Z,99.90
2023-01-25T21:57:20.598Z,99.90
2023-01-25T21:59:48.942Z,99.90
2023-01-25T22:02:17.166Z,99.90
2023-01-25T22:04:46.540Z,99.90
2023-01-25T22:07:14.531Z,99.90
2023-01-25T22:09:42.561Z,99.90
2023-01-25T22:12:12.406Z,99.90
2023-01-25T22:14:40.617Z,99.90
2023-01-25T22:17:08.665Z,99.90
2023-01-25T22:19:36.673Z,99.90
2023-01-25T22:22:06.336Z,99.90
2023-01-25T22:24:34.581Z,99.90
2023-01-25T22:27:28.161Z,99.90
2023-01-25T22:29:56.260Z,99.90
2023-01-25T22:32:25.009Z,99.90
2023-01-25T22:34:53.021Z,99.90
2023-01-25T22:37:22.544Z,99.90
2023-01-25T22:39:50.708Z,99.90
2023-01-25T22:42:18.982Z,99.90
2023-01-25T22:44:47.264Z,99.90
2023-01-25T22:47:15.573Z,99.90
2023-01-25T22:49:43.563Z,99.90
2023-01-25T22:52:11.557Z,99.90
2023-01-25T22:54:40.953Z,99.90
2023-01-25T22:57:08.914Z,99.90
2023-01-25T22:59:36.916Z,99.90
2023-01-25T23:02:04.926Z,99.90
2023-01-25T23:04:32.903Z,99.90
2023-01-25T23:07:12.033Z,99.90
2023-01-25T23:09:42.053Z,99.90
2023-01-25T23:12:10.460Z,99.90
2023-01-25T23:14:54.069Z,99.90
2023-01-25T23:17:41.287Z,99.90
2023-01-25T23:20:12.741Z,99.90
2023-01-25T23:22:41.658Z,99.90
2023-01-25T23:25:12.712Z,99.90
2023-01-25T23:27:40.991Z,99.90
2023-01-25T23:30:11.413Z,99.90
2023-01-25T23:32:39.698Z,99.90
2023-01-25T23:35:08.817Z,99.90
2023-01-25T23:37:37.016Z,99.90
2023-01-25T23:40:09.001Z,99.90
2023-01-25T23:42:39.119Z,99.90
2023-01-25T23:45:08.768Z,99.90
2023-01-25T23:47:37.162Z,99.90
2023-01-25T23:50:06.606Z,99.90
2023-01-25T23:52:36.363Z,99.90
2023-01-25T23:55:05.154Z,99.90
2023-01-25T23:57:33.465Z,99.90
